Time;durP1;ratioP1;P1;durP2;ratioP2;P2;SDS_P1;SDS_P2;PMS_P1;PMS_P2;Temp;Humidity;BMP_temperature;BMP_pressure;BME280_temperature;BME280_humidity;BME280_pressure;Samples;Min_cycle;Max_cycle;Signal;HPM_P1;HPM_P2
2022/06/21 04:06:02;;;;;;;1.70;1.57;;;15.40;99.90;;;;;;4975964;28;20994;-66
2022/06/21 04:08:51;;;;;;;1.43;1.33;;;15.40;99.90;;;;;;4976815;28;20403;-66
2022/06/21 04:11:22;;;;;;;2.47;1.63;;;15.50;99.90;;;;;;4939189;28;20432;-66
2022/06/21 04:14:11;;;;;;;2.33;1.67;;;15.60;99.90;;;;;;4971419;28;20431;-65
2022/06/21 04:16:45;;;;;;;1.63;1.53;;;15.80;99.90;;;;;;4969711;28;20940;-65
2022/06/21 04:19:13;;;;;;;2.07;1.83;;;16.00;99.90;;;;;;4977313;28;20387;-65
2022/06/21 04:21:56;;;;;;;1.27;1.27;;;16.20;99.90;;;;;;4977132;28;20398;-65
2022/06/21 04:24:28;;;;;;;2.33;1.90;;;16.30;98.50;;;;;;4976332;28;20470;-66
2022/06/21 04:27:09;;;;;;;1.90;1.40;;;16.30;97.90;;;;;;4976636;28;20921;-67
2022/06/21 04:30:00;;;;;;;1.30;1.30;;;16.30;98.20;;;;;;4977055;28;20405;-66
2022/06/21 04:32:41;;;;;;;1.90;1.60;;;16.30;98.30;;;;;;4976698;28;20404;-67
2022/06/21 04:35:16;;;;;;;1.40;1.33;;;16.40;98.50;;;;;;4976135;28;20805;-66
2022/06/21 04:38:23;;;;;;;2.00;1.57;;;16.60;98.40;;;;;;4976956;28;20407;-66
2022/06/21 04:40:57;;;;;;;1.70;1.60;;;16.80;97.60;;;;;;4957572;28;20404;-66
2022/06/21 04:43:25;;;;;;;1.60;1.50;;;16.90;96.70;;;;;;4957184;28;20572;-65
2022/06/21 04:46:20;;;;;;;1.40;1.40;;;17.00;96.50;;;;;;4956159;29;20418;-65
2022/06/21 04:49:10;;;;;;;1.40;1.30;;;17.10;96.80;;;;;;4957516;28;20405;-66
2022/06/21 04:51:41;;;;;;;1.70;1.60;;;17.20;96.50;;;;;;4948854;29;20421;-65
2022/06/21 04:54:22;;;;;;;1.50;1.40;;;17.40;95.30;;;;;;4969526;28;20431;-65
2022/06/21 04:57:08;;;;;;;1.80;1.70;;;17.40;94.90;;;;;;4976549;28;20440;-66
2022/06/21 04:59:33;;;;;;;1.63;1.53;;;17.40;94.90;;;;;;4975985;28;20946;-67
2022/06/21 05:02:00;;;;;;;1.77;1.67;;;17.30;94.80;;;;;;4976358;28;20410;-66
2022/06/21 05:04:33;;;;;;;1.90;1.67;;;17.20;95.00;;;;;;4975386;28;20304;-66
2022/06/21 05:07:03;;;;;;;2.10;2.00;;;17.20;95.40;;;;;;4975980;28;20411;-66
2022/06/21 05:09:31;;;;;;;1.70;1.60;;;17.00;94.80;;;;;;4976282;28;20436;-65
2022/06/21 05:12:05;;;;;;;1.63;1.53;;;17.00;95.20;;;;;;4958443;28;20450;-67
2022/06/21 05:14:36;;;;;;;1.70;1.60;;;17.00;95.30;;;;;;4974557;28;20542;-66
2022/06/21 05:17:05;;;;;;;2.10;1.90;;;17.00;95.10;;;;;;4975740;28;20412;-65
2022/06/21 05:19:38;;;;;;;4.97;2.37;;;17.00;95.60;;;;;;4975374;28;20422;-65
2022/06/21 05:22:15;;;;;;;1.83;1.73;;;17.10;95.70;;;;;;4974496;28;20899;-66
2022/06/21 05:24:41;;;;;;;8.70;1.67;;;17.10;95.50;;;;;;4975757;28;20434;-66
2022/06/21 05:27:25;;;;;;;3.10;2.40;;;17.30;95.20;;;;;;4990203;28;20424;-66
2022/06/21 05:30:06;;;;;;;1.70;1.60;;;17.40;95.20;;;;;;4974437;28;20198;-67
2022/06/21 05:32:52;;;;;;;1.70;1.60;;;17.50;94.90;;;;;;4975513;28;20413;-65
2022/06/21 05:35:21;;;;;;;2.10;1.90;;;17.50;95.10;;;;;;4975815;28;20491;-65
2022/06/21 05:37:56;;;;;;;1.50;1.40;;;17.60;95.00;;;;;;4975633;28;20438;-65
2022/06/21 05:40:43;;;;;;;1.70;1.60;;;17.60;94.80;;;;;;4974628;28;20499;-66
2022/06/21 05:43:16;;;;;;;1.50;1.40;;;17.60;94.30;;;;;;4973703;28;20444;-65
2022/06/21 05:45:47;;;;;;;1.80;1.70;;;17.80;94.50;;;;;;4975292;28;20467;-66
2022/06/21 05:48:21;;;;;;;1.80;1.70;;;17.90;94.10;;;;;;4975583;28;20412;-66
2022/06/21 05:50:47;;;;;;;1.77;1.67;;;18.10;93.80;;;;;;4990114;28;20464;-64
2022/06/21 05:53:31;;;;;;;2.97;1.93;;;18.20;93.70;;;;;;4974638;28;20788;-65
2022/06/21 05:56:03;;;;;;;1.30;1.30;;;18.40;93.00;;;;;;4975207;28;20554;-65
2022/06/21 05:58:35;;;;;;;1.73;1.63;;;18.50;92.90;;;;;;4973904;28;20414;-65
2022/06/21 06:01:07;;;;;;;1.80;1.70;;;18.70;92.60;;;;;;4975340;28;20491;-67
2022/06/21 06:03:55;;;;;;;2.60;1.57;;;18.90;92.50;;;;;;4974064;28;20479;-65
2022/06/21 06:06:21;;;;;;;1.63;1.53;;;19.00;91.80;;;;;;4965583;28;20510;-64
2022/06/21 06:08:53;;;;;;;2.00;1.90;;;19.10;91.00;;;;;;4974905;28;20406;-65
2022/06/21 06:11:24;;;;;;;2.90;1.80;;;19.10;91.20;;;;;;4975025;28;20422;-65
2022/06/21 06:13:52;;;;;;;2.23;2.03;;;19.10;91.70;;;;;;4973417;28;20423;-64
2022/06/21 06:16:24;;;;;;;2.90;1.73;;;19.10;90.90;;;;;;4974801;28;20461;-65
2022/06/21 06:18:57;;;;;;;3.80;1.60;;;19.10;90.90;;;;;;4973096;28;20530;-64
2022/06/21 06:21:36;;;;;;;1.73;1.30;;;19.00;91.00;;;;;;4989810;28;20447;-64
2022/06/21 06:24:18;;;;;;;4.33;1.77;;;19.00;91.00;;;;;;4974391;28;20514;-65
2022/06/21 06:26:45;;;;;;;3.27;1.43;;;19.10;91.00;;;;;;4973759;28;20901;-66
2022/06/21 06:29:17;;;;;;;1.60;1.50;;;19.00;90.90;;;;;;4974930;28;20428;-67
2022/06/21 06:31:58;;;;;;;1.90;1.70;;;19.10;91.00;;;;;;4974942;28;20414;-67
2022/06/21 06:34:31;;;;;;;1.97;1.87;;;19.20;90.70;;;;;;4975165;28;20457;-64
2022/06/21 06:37:00;;;;;;;1.70;1.60;;;19.30;90.60;;;;;;4989842;28;20839;-65
2022/06/21 06:39:31;;;;;;;1.40;1.30;;;19.30;90.40;;;;;;4974324;28;20751;-66
2022/06/21 06:42:14;;;;;;;2.63;1.93;;;19.30;90.10;;;;;;4974497;28;20421;-64
2022/06/21 06:45:02;;;;;;;1.57;1.47;;;19.50;90.20;;;;;;4974396;28;20425;-65
2022/06/21 06:47:36;;;;;;;1.73;1.57;;;19.60;90.20;;;;;;4973955;28;20964;-66
2022/06/21 06:50:23;;;;;;;1.67;1.57;;;19.70;88.50;;;;;;4962252;28;20430;-63
2022/06/21 06:53:03;;;;;;;1.23;1.20;;;19.70;86.30;;;;;;4974060;28;20924;-66
2022/06/21 06:55:38;;;;;;;1.70;1.60;;;19.80;87.00;;;;;;4974109;28;20459;-65
2022/06/21 06:58:12;;;;;;;1.00;1.00;;;19.90;86.00;;;;;;4974252;28;20442;-65
2022/06/21 07:00:44;;;;;;;2.30;1.70;;;20.00;87.70;;;;;;4974547;28;20894;-65
2022/06/21 07:03:25;;;;;;;1.70;1.60;;;20.20;87.00;;;;;;4973883;28;20514;-64
2022/06/21 07:06:06;;;;;;;2.00;1.90;;;20.30;88.50;;;;;;4974340;28;20809;-67
2022/06/21 07:09:00;;;;;;;1.57;1.50;;;20.50;86.90;;;;;;4974063;28;20407;-66
2022/06/21 07:11:49;;;;;;;1.30;1.20;;;20.70;86.20;;;;;;4987502;28;20451;-66
2022/06/21 07:14:23;;;;;;;1.70;1.60;;;20.80;85.10;;;;;;4992993;28;20440;-66
2022/06/21 07:17:04;;;;;;;3.97;1.80;;;20.90;85.20;;;;;;4992868;28;20411;-66
2022/06/21 07:19:30;;;;;;;1.70;1.60;;;21.00;85.10;;;;;;4971747;28;20567;-66
2022/06/21 07:21:56;;;;;;;1.40;1.30;;;21.10;85.70;;;;;;4974119;28;20902;-66
2022/06/21 07:24:22;;;;;;;2.93;1.70;;;21.40;83.40;;;;;;4972558;28;20791;-66
2022/06/21 07:26:54;;;;;;;1.60;1.57;;;21.60;83.00;;;;;;4973220;28;20412;-65
2022/06/21 07:29:32;;;;;;;1.13;1.10;;;21.90;81.90;;;;;;4973606;28;20221;-66
2022/06/21 07:32:12;;;;;;;1.80;1.70;;;22.30;80.50;;;;;;4974195;28;20403;-65
2022/06/21 07:34:43;;;;;;;3.50;1.50;;;22.70;80.10;;;;;;4973146;28;20877;-66
2022/06/21 07:37:20;;;;;;;7.40;1.60;;;22.90;78.60;;;;;;4973388;28;20539;-65
2022/06/21 07:40:10;;;;;;;1.13;1.13;;;22.80;77.80;;;;;;4973341;28;20433;-66
2022/06/21 07:42:58;;;;;;;1.70;1.60;;;22.70;79.00;;;;;;4973760;28;20411;-65
2022/06/21 07:45:32;;;;;;;1.63;1.53;;;23.00;77.60;;;;;;4954864;28;20477;-65
2022/06/21 07:48:24;;;;;;;1.57;1.40;;;23.10;77.10;;;;;;4958286;28;20411;-66
2022/06/21 07:50:52;;;;;;;1.80;1.57;;;23.10;76.70;;;;;;4973139;28;20746;-65
2022/06/21 07:53:30;;;;;;;1.40;1.30;;;22.90;77.60;;;;;;4970972;28;20486;-66
2022/06/21 07:56:05;;;;;;;1.43;1.33;;;22.80;77.20;;;;;;4973903;28;20849;-65
2022/06/21 07:58:41;;;;;;;1.33;1.23;;;22.90;77.50;;;;;;4988793;28;20998;-66
2022/06/21 08:07:20;;;;;;;1.87;1.77;;;23.80;75.50;;;;;;4977234;28;20414;-66
2022/06/21 08:09:52;;;;;;;1.47;1.40;;;24.00;75.10;;;;;;4977432;28;20394;-67
2022/06/21 08:12:18;;;;;;;1.50;1.50;;;24.10;73.80;;;;;;4976996;28;20782;-66
2022/06/21 08:14:44;;;;;;;1.30;1.30;;;24.70;73.70;;;;;;4976305;28;20466;-67
2022/06/21 08:17:35;;;;;;;4.53;1.40;;;25.40;71.50;;;;;;4977178;28;20422;-65
2022/06/21 08:20:04;;;;;;;1.70;1.60;;;25.80;70.50;;;;;;4976990;28;20234;-65
2022/06/21 08:22:43;;;;;;;1.33;1.33;;;26.10;68.60;;;;;;4976756;28;20414;-64
2022/06/21 08:25:31;;;;;;;1.83;1.73;;;26.60;68.70;;;;;;4977102;28;20423;-63
2022/06/21 08:28:05;;;;;;;1.90;1.80;;;27.10;65.50;;;;;;4977237;28;20490;-62
2022/06/21 08:30:42;;;;;;;1.70;1.60;;;27.30;65.80;;;;;;4976738;28;20941;-65
2022/06/21 08:33:34;;;;;;;1.50;1.50;;;27.30;64.40;;;;;;4976779;28;20404;-65
2022/06/21 08:36:10;;;;;;;1.80;1.70;;;26.60;64.90;;;;;;4976825;28;20464;-64
2022/06/21 08:38:43;;;;;;;3.50;1.50;;;25.90;66.80;;;;;;4976912;28;20373;-64
2022/06/21 08:41:55;;;;;;;1.87;1.77;;;25.30;69.10;;;;;;4976938;28;20396;-67
2022/06/21 08:44:45;;;;;;;4.53;1.73;;;24.90;71.10;;;;;;4975329;28;20459;-65
2022/06/21 08:47:29;;;;;;;1.63;1.43;;;24.40;71.80;;;;;;4976495;28;20486;-67
2022/06/21 08:50:26;;;;;;;1.83;1.70;;;24.10;72.20;;;;;;4976662;28;20823;-66
2022/06/21 08:52:59;;;;;;;1.63;1.50;;;23.80;73.30;;;;;;4976101;28;20443;-65
2022/06/21 08:56:12;;;;;;;1.53;1.43;;;23.50;74.80;;;;;;4976710;28;20853;-66
2022/06/21 08:59:12;;;;;;;2.00;1.90;;;23.30;75.90;;;;;;4916452;29;20565;-66
2022/06/21 09:01:41;;;;;;;1.83;1.50;;;23.10;76.50;;;;;;4976442;28;20417;-66
2022/06/21 09:04:26;;;;;;;1.67;1.57;;;23.10;76.30;;;;;;4975550;28;20436;-66
2022/06/21 09:07:12;;;;;;;2.70;1.63;;;23.20;77.10;;;;;;4976012;28;20411;-66
2022/06/21 09:09:37;;;;;;;2.30;2.10;;;23.00;76.70;;;;;;4976181;28;20458;-66
2022/06/21 09:12:16;;;;;;;1.77;1.67;;;22.90;78.00;;;;;;4975877;28;20921;-67
2022/06/21 09:15:13;;;;;;;1.50;1.40;;;22.80;76.90;;;;;;4975918;28;20232;-67
2022/06/21 09:18:07;;;;;;;8.80;1.87;;;22.90;78.20;;;;;;4976145;28;20457;-66
2022/06/21 09:20:48;;;;;;;2.90;1.70;;;23.00;78.70;;;;;;4976009;28;20749;-66
2022/06/21 09:23:51;;;;;;;1.90;1.80;;;23.60;78.60;;;;;;4975384;28;20406;-67
2022/06/21 09:26:32;;;;;;;1.73;1.63;;;24.80;76.90;;;;;;4975818;28;20407;-66
2022/06/21 09:29:23;;;;;;;2.00;1.90;;;26.20;74.30;;;;;;4975712;28;20431;-64
2022/06/21 09:32:08;;;;;;;3.20;1.97;;;27.00;70.80;;;;;;4975995;28;20447;-65
2022/06/21 09:34:59;;;;;;;2.00;1.90;;;27.50;68.90;;;;;;4964832;28;20459;-66
2022/06/21 09:37:41;;;;;;;2.00;1.90;;;27.90;68.50;;;;;;4975581;28;20503;-67
2022/06/21 09:40:37;;;;;;;2.20;2.10;;;28.60;64.50;;;;;;4975678;28;20423;-66
2022/06/21 09:43:17;;;;;;;1.87;1.80;;;28.80;63.60;;;;;;4974742;28;20455;-67
2022/06/21 09:46:15;;;;;;;2.23;2.00;;;28.90;63.40;;;;;;4975546;28;20395;-68
2022/06/21 09:49:01;;;;;;;2.03;1.93;;;28.70;62.40;;;;;;4941496;28;20439;-68
2022/06/21 09:51:38;;;;;;;4.67;1.97;;;28.60;63.80;;;;;;4975048;28;20427;-68
2022/06/21 09:54:26;;;;;;;1.90;1.80;;;29.10;62.80;;;;;;4974782;28;20419;-67
2022/06/21 09:57:12;;;;;;;1.90;1.80;;;29.70;62.80;;;;;;4974999;28;20791;-67
2022/06/21 10:00:04;;;;;;;2.77;2.30;;;30.40;59.90;;;;;;4974494;28;20394;-69
2022/06/21 10:02:35;;;;;;;1.93;1.83;;;30.70;59.70;;;;;;4974591;28;20419;-69
2022/06/21 10:05:29;;;;;;;2.17;2.07;;;31.20;59.70;;;;;;4974754;28;20451;-68
2022/06/21 10:08:06;;;;;;;3.07;1.83;;;31.40;58.00;;;;;;4974949;28;20412;-69
2022/06/21 10:10:53;;;;;;;2.30;2.10;;;31.40;57.40;;;;;;4975002;28;20408;-68
2022/06/21 10:13:24;;;;;;;2.00;1.90;;;31.60;57.90;;;;;;4974196;28;20512;-68
2022/06/21 10:15:58;;;;;;;2.30;2.20;;;32.00;57.60;;;;;;4974833;28;20829;-69
2022/06/21 10:18:46;;;;;;;2.10;2.00;;;32.10;56.50;;;;;;4974830;28;20481;-68
2022/06/21 10:21:43;;;;;;;2.27;2.17;;;32.20;57.00;;;;;;4974999;28;20370;-68
2022/06/21 10:24:35;;;;;;;2.53;2.33;;;32.40;56.50;;;;;;4974378;28;20428;-68
2022/06/21 10:27:15;;;;;;;2.60;2.40;;;32.30;55.80;;;;;;4973450;28;20438;-67
2022/06/21 10:30:00;;;;;;;2.40;2.30;;;32.00;56.60;;;;;;4975110;28;20400;-68
2022/06/21 10:32:31;;;;;;;2.73;2.50;;;31.90;57.40;;;;;;4974222;28;20734;-68
2022/06/21 10:35:12;;;;;;;2.03;1.93;;;31.60;56.70;;;;;;4974862;28;20892;-68
2022/06/21 10:37:56;;;;;;;2.53;2.33;;;31.30;57.20;;;;;;4974640;28;20736;-68
2022/06/21 10:40:44;;;;;;;2.53;2.20;;;30.90;58.60;;;;;;4974769;28;20386;-65
2022/06/21 10:43:24;;;;;;;2.43;2.33;;;30.80;58.50;;;;;;4974097;28;20390;-68
2022/06/21 10:46:10;;;;;;;2.73;2.53;;;31.00;58.40;;;;;;4974618;28;20404;-68
2022/06/21 10:48:51;;;;;;;2.43;2.23;;;31.10;59.20;;;;;;4989317;28;20394;-67
2022/06/21 10:51:43;;;;;;;2.20;2.10;;;31.20;58.50;;;;;;4974444;28;20440;-67
2022/06/21 10:54:12;;;;;;;3.10;2.50;;;31.20;58.30;;;;;;4973817;28;20478;-68
2022/06/21 10:57:14;;;;;;;2.90;2.70;;;31.00;59.10;;;;;;4974025;28;21014;-67
2022/06/21 11:02:58;;;;;;;2.40;2.20;;;30.50;59.30;;;;;;4973621;28;20421;-67
2022/06/21 11:06:01;;;;;;;2.90;2.43;;;30.60;59.30;;;;;;4974463;28;20443;-67
2022/06/21 11:08:29;;;;;;;3.30;3.10;;;30.30;58.90;;;;;;4973661;28;20403;-66
2022/06/21 11:11:06;;;;;;;2.47;2.37;;;29.90;60.60;;;;;;4972201;28;20398;-67
2022/06/21 11:13:40;;;;;;;3.00;2.77;;;29.50;62.60;;;;;;4974251;28;20501;-67
2022/06/21 11:16:20;;;;;;;3.13;2.90;;;29.10;63.00;;;;;;4968872;28;20441;-67
2022/06/21 11:18:49;;;;;;;2.80;2.60;;;28.60;64.90;;;;;;4974160;28;20375;-66
2022/06/21 11:21:37;;;;;;;2.67;2.47;;;28.30;65.50;;;;;;4974297;28;20806;-68
2022/06/21 11:24:18;;;;;;;3.00;2.87;;;28.10;66.60;;;;;;4973999;28;20485;-68
2022/06/21 11:27:11;;;;;;;2.73;2.53;;;27.80;67.10;;;;;;4972897;28;20423;-67
2022/06/21 11:29:36;;;;;;;3.90;3.70;;;27.60;68.30;;;;;;4974189;28;20383;-66
2022/06/21 11:32:27;;;;;;;3.50;3.30;;;27.50;68.50;;;;;;4974037;28;20739;-69
2022/06/21 11:35:01;;;;;;;3.47;3.27;;;27.40;69.80;;;;;;4974019;28;20203;-67
2022/06/21 11:37:30;;;;;;;8.30;2.87;;;27.30;69.90;;;;;;4975037;28;20433;-67
2022/06/21 11:40:16;;;;;;;5.27;3.20;;;27.10;70.70;;;;;;4977942;28;20395;-68
2022/06/21 11:42:50;;;;;;;3.50;3.20;;;26.90;71.20;;;;;;4977480;28;20415;-69
2022/06/21 11:45:31;;;;;;;3.03;2.83;;;26.90;72.00;;;;;;4977738;28;20405;-69
2022/06/21 11:48:27;;;;;;;3.27;3.07;;;27.00;73.20;;;;;;4977598;28;20406;-69
2022/06/21 11:50:55;;;;;;;2.87;2.67;;;27.10;75.10;;;;;;4975872;28;20394;-68
2022/06/21 11:53:51;;;;;;;2.57;2.43;;;27.20;73.70;;;;;;4977167;28;20499;-69
2022/06/21 11:56:26;;;;;;;4.70;3.20;;;27.40;74.40;;;;;;4977606;28;20547;-69
2022/06/21 11:58:54;;;;;;;4.60;2.93;;;27.40;74.50;;;;;;4977609;28;20405;-69
2022/06/21 12:01:32;;;;;;;2.63;2.50;;;27.50;74.10;;;;;;4977043;28;20429;-70
2022/06/21 12:04:38;;;;;;;3.40;3.10;;;27.70;73.70;;;;;;4976568;28;20434;-68
2022/06/21 12:07:12;;;;;;;2.87;2.67;;;27.70;74.40;;;;;;4977282;28;20417;-68
2022/06/21 12:09:47;;;;;;;3.40;3.20;;;27.70;74.60;;;;;;4977584;28;20894;-67
2022/06/21 12:12:34;;;;;;;2.90;2.70;;;27.70;74.70;;;;;;4976730;28;20417;-67
2022/06/21 12:15:18;;;;;;;3.83;3.53;;;27.70;74.70;;;;;;4977450;28;20985;-67
2022/06/21 12:17:53;;;;;;;3.37;3.17;;;27.80;74.40;;;;;;4977531;28;20400;-67
2022/06/21 12:20:25;;;;;;;3.63;3.30;;;27.80;74.30;;;;;;4976545;28;20420;-70
2022/06/21 12:23:06;;;;;;;3.37;3.17;;;27.90;74.10;;;;;;4976594;28;20476;-67
2022/06/21 12:25:31;;;;;;;3.77;3.47;;;27.90;74.50;;;;;;4977247;28;20433;-67
2022/06/21 12:27:59;;;;;;;3.50;3.30;;;27.90;75.20;;;;;;4976807;28;20435;-67
2022/06/21 12:30:28;;;;;;;3.40;3.20;;;28.10;74.90;;;;;;4977151;28;20176;-67
2022/06/21 12:33:01;;;;;;;3.77;3.43;;;27.90;74.80;;;;;;4974996;28;20411;-68
2022/06/21 12:35:56;;;;;;;3.60;3.40;;;27.90;75.60;;;;;;4976582;28;20462;-68
2022/06/21 12:38:29;;;;;;;3.93;3.63;;;27.90;75.40;;;;;;4941275;28;20398;-68
2022/06/21 12:41:21;;;;;;;3.63;3.00;;;27.90;76.20;;;;;;4975477;28;20466;-67
2022/06/21 12:43:53;;;;;;;3.90;3.60;;;27.90;75.50;;;;;;4976427;28;20454;-67
2022/06/21 12:46:30;;;;;;;3.90;3.60;;;28.10;75.50;;;;;;4976928;28;20561;-66
2022/06/21 12:49:06;;;;;;;3.17;2.87;;;28.30;75.70;;;;;;4976042;28;20453;-66
2022/06/21 12:51:54;;;;;;;3.17;2.87;;;28.10;74.70;;;;;;4976519;28;20725;-66
2022/06/21 12:54:37;;;;;;;3.80;3.50;;;27.90;75.00;;;;;;4976089;28;20438;-67
2022/06/21 12:57:08;;;;;;;4.27;3.53;;;27.80;75.50;;;;;;4976410;28;20388;-67
2022/06/21 13:00:18;;;;;;;3.80;3.40;;;27.60;76.20;;;;;;4976928;28;20424;-67
2022/06/21 13:03:08;;;;;;;4.00;3.50;;;27.30;76.80;;;;;;4916099;29;20422;-67
2022/06/21 13:05:59;;;;;;;3.87;3.57;;;27.10;77.50;;;;;;4974876;28;20418;-67
2022/06/21 13:08:46;;;;;;;4.40;3.97;;;27.10;78.40;;;;;;4976522;28;20918;-68
2022/06/21 13:11:47;;;;;;;3.37;3.17;;;27.00;78.20;;;;;;4976121;28;20511;-67
2022/06/21 13:14:28;;;;;;;5.40;3.30;;;26.90;78.70;;;;;;4975975;28;20435;-68
2022/06/21 13:17:12;;;;;;;4.00;3.70;;;26.90;79.50;;;;;;4975045;28;20463;-67
2022/06/21 13:19:44;;;;;;;3.63;3.33;;;26.90;79.60;;;;;;4974148;28;20420;-68
2022/06/21 13:22:27;;;;;;;3.53;3.23;;;26.90;79.00;;;;;;4974930;28;20428;-67
2022/06/21 13:25:11;;;;;;;3.53;3.23;;;26.80;79.40;;;;;;4976056;28;20421;-68
2022/06/21 13:27:55;;;;;;;3.33;3.13;;;26.70;79.20;;;;;;4975799;28;20419;-67
2022/06/21 13:30:44;;;;;;;3.50;3.20;;;26.60;79.80;;;;;;4976236;28;20410;-67
2022/06/21 13:33:54;;;;;;;3.80;3.50;;;26.60;79.60;;;;;;4975317;28;20450;-67
2022/06/21 13:36:34;;;;;;;4.20;3.90;;;26.50;80.00;;;;;;4975552;28;20455;-67
2022/06/21 13:39:09;;;;;;;4.00;3.70;;;26.50;80.10;;;;;;4975836;28;20411;-67
2022/06/21 13:45:12;;;;;;;3.50;3.20;;;26.30;81.70;;;;;;4972979;28;20474;-67
2022/06/21 13:48:13;;;;;;;4.03;3.73;;;26.40;81.80;;;;;;4974942;28;20822;-67
2022/06/21 13:50:47;;;;;;;4.53;3.33;;;26.60;82.60;;;;;;4962464;28;20431;-66
2022/06/21 13:53:34;;;;;;;3.80;3.50;;;26.70;82.00;;;;;;4975285;28;20427;-67
2022/06/21 13:56:35;;;;;;;3.67;3.47;;;26.80;81.60;;;;;;4974988;28;20463;-67
2022/06/21 13:59:22;;;;;;;4.23;3.93;;;26.90;81.10;;;;;;4975254;28;20412;-67
2022/06/21 14:02:01;;;;;;;3.43;3.23;;;26.90;80.80;;;;;;4974656;28;20454;-67
2022/06/21 14:04:38;;;;;;;4.10;3.80;;;27.10;81.20;;;;;;4975076;28;20477;-66
2022/06/21 14:07:33;;;;;;;3.93;3.63;;;27.20;81.20;;;;;;4974923;28;20414;-66
2022/06/21 14:10:20;;;;;;;3.77;3.37;;;27.30;80.50;;;;;;4975144;28;20461;-65
2022/06/21 14:13:26;;;;;;;4.67;3.63;;;27.20;80.10;;;;;;4974859;28;20402;-65
2022/06/21 14:16:06;;;;;;;4.67;3.50;;;27.20;80.20;;;;;;4915659;29;20545;-66
2022/06/21 14:18:45;;;;;;;3.97;3.63;;;27.20;79.80;;;;;;4915295;29;20426;-67
2022/06/21 14:21:26;;;;;;;7.67;3.70;;;27.20;80.30;;;;;;4915641;29;20461;-66
2022/06/21 14:24:19;;;;;;;3.97;3.67;;;27.00;80.10;;;;;;4914809;29;20448;-66
2022/06/21 14:27:18;;;;;;;4.17;3.87;;;26.90;81.20;;;;;;4915452;29;20421;-67
2022/06/21 14:30:19;;;;;;;5.20;3.67;;;26.90;81.20;;;;;;4899673;29;20418;-67
2022/06/21 14:32:51;;;;;;;4.27;3.87;;;26.90;81.50;;;;;;4901843;29;20434;-66
2022/06/21 14:35:39;;;;;;;3.70;3.50;;;26.80;81.40;;;;;;4915378;29;20453;-68
2022/06/21 14:38:15;;;;;;;4.20;3.90;;;26.80;82.90;;;;;;4915393;29;20852;-65
2022/06/21 14:41:06;;;;;;;4.73;4.00;;;26.80;82.50;;;;;;4896408;29;20419;-68
2022/06/21 14:43:37;;;;;;;4.20;3.93;;;26.90;82.00;;;;;;4895930;29;20831;-67
2022/06/21 14:46:21;;;;;;;4.13;3.80;;;26.90;82.20;;;;;;4912930;29;20420;-67
2022/06/21 14:49:35;;;;;;;4.60;4.20;;;26.90;82.80;;;;;;4955470;29;20474;-67
2022/06/21 14:52:09;;;;;;;3.97;3.67;;;27.10;83.20;;;;;;4942615;28;20423;-65
2022/06/21 14:54:41;;;;;;;4.80;4.40;;;27.10;82.40;;;;;;4967823;28;20442;-69
2022/06/21 14:57:25;;;;;;;3.90;3.67;;;27.20;82.20;;;;;;4974759;28;20876;-70
2022/06/21 15:00:09;;;;;;;5.13;3.93;;;27.20;82.40;;;;;;4974729;28;20782;-69
2022/06/21 15:02:46;;;;;;;3.97;3.73;;;27.20;82.10;;;;;;4974315;28;20762;-70
2022/06/21 15:05:31;;;;;;;4.43;4.03;;;27.30;82.90;;;;;;4974364;28;20579;-69
2022/06/21 15:08:09;;;;;;;4.27;3.97;;;27.40;82.50;;;;;;4973919;28;20929;-66
2022/06/21 15:10:46;;;;;;;3.73;3.47;;;27.40;82.50;;;;;;4974410;28;20503;-66
2022/06/21 15:13:14;;;;;;;3.83;3.60;;;27.40;82.40;;;;;;4978093;28;20436;-67
2022/06/21 15:15:43;;;;;;;4.30;4.00;;;27.40;82.20;;;;;;4978646;28;20552;-67
2022/06/21 15:18:36;;;;;;;4.30;4.00;;;27.30;82.10;;;;;;4978527;28;20853;-66
2022/06/21 15:21:08;;;;;;;3.43;3.23;;;27.40;82.30;;;;;;4978510;28;20411;-67
2022/06/21 15:24:18;;;;;;;3.70;3.50;;;27.40;82.30;;;;;;4977531;28;20494;-68
2022/06/21 15:26:51;;;;;;;5.23;4.83;;;27.40;82.60;;;;;;4937797;29;20457;-65
2022/06/21 15:29:40;;;;;;;4.13;3.83;;;27.40;82.40;;;;;;4974659;28;20818;-67
2022/06/21 15:32:10;;;;;;;4.27;3.50;;;27.40;82.50;;;;;;4977838;28;20825;-67
2022/06/21 15:34:43;;;;;;;4.20;3.90;;;27.40;82.50;;;;;;4977858;28;20393;-66
2022/06/21 15:37:29;;;;;;;4.57;4.27;;;27.50;82.70;;;;;;4977960;28;20407;-66
2022/06/21 15:40:04;;;;;;;4.90;4.50;;;27.50;82.40;;;;;;4976738;28;20427;-66
2022/06/21 15:43:00;;;;;;;4.53;4.00;;;27.50;82.50;;;;;;4977638;28;20813;-66
2022/06/21 15:45:44;;;;;;;3.73;3.43;;;27.40;82.40;;;;;;4977799;28;20438;-66
2022/06/21 15:51:34;;;;;;;5.23;4.77;;;27.50;83.00;;;;;;4977870;28;20507;-70
2022/06/21 15:54:05;;;;;;;4.33;4.03;;;27.50;81.80;;;;;;4968564;28;20858;-68
2022/06/21 15:56:58;;;;;;;4.13;3.83;;;27.50;82.00;;;;;;4977199;28;20426;-66
2022/06/21 15:59:43;;;;;;;4.47;4.07;;;27.40;82.20;;;;;;4968438;28;20386;-66
2022/06/21 16:02:17;;;;;;;5.37;4.97;;;27.40;82.00;;;;;;4968034;28;20555;-65
2022/06/21 16:05:20;;;;;;;5.00;4.60;;;27.40;82.80;;;;;;4967888;28;20857;-65
2022/06/21 16:08:03;;;;;;;4.23;3.93;;;27.50;82.80;;;;;;4969510;28;20422;-67
2022/06/21 16:10:38;;;;;;;4.10;3.80;;;27.50;82.40;;;;;;4968058;28;20398;-66
2022/06/21 16:13:13;;;;;;;4.80;4.30;;;27.50;83.00;;;;;;4967827;28;20421;-66
2022/06/21 16:15:51;;;;;;;5.63;4.63;;;27.50;82.60;;;;;;4967914;28;20530;-67
2022/06/21 16:18:21;;;;;;;4.43;4.10;;;27.50;82.20;;;;;;4968045;28;20427;-67
2022/06/21 16:20:48;;;;;;;3.47;3.27;;;27.50;81.70;;;;;;4966726;28;20452;-67
2022/06/21 16:23:26;;;;;;;4.40;4.10;;;27.50;82.30;;;;;;4967067;28;20454;-67
2022/06/21 16:25:58;;;;;;;4.60;4.20;;;27.60;81.80;;;;;;4976000;28;20422;-66
2022/06/21 16:28:30;;;;;;;4.47;4.07;;;27.60;81.20;;;;;;4976082;28;20503;-66
2022/06/21 16:33:49;;;;;;;4.57;4.17;;;27.60;81.30;;;;;;4976248;28;20450;-65
2022/06/21 16:36:58;;;;;;;4.80;4.40;;;27.60;81.60;;;;;;4976735;28;20469;-64
2022/06/21 16:39:39;;;;;;;4.67;4.27;;;27.60;82.20;;;;;;4973333;28;20488;-66
2022/06/21 16:45:02;;;;;;;4.33;3.80;;;27.50;81.90;;;;;;4976666;28;20430;-65
2022/06/21 16:47:56;;;;;;;5.30;4.80;;;27.40;81.90;;;;;;4976789;28;20386;-65
2022/06/21 16:50:25;;;;;;;4.83;4.43;;;27.40;82.80;;;;;;4957492;28;20379;-64
2022/06/21 16:52:50;;;;;;;4.13;3.83;;;27.40;82.40;;;;;;4971868;28;20449;-65
2022/06/21 16:55:18;;;;;;;4.87;4.40;;;27.40;82.00;;;;;;4975395;28;20430;-64
2022/06/21 16:57:47;;;;;;;5.60;5.10;;;27.40;82.00;;;;;;4976499;28;20375;-64
2022/06/21 17:00:27;;;;;;;4.07;3.70;;;27.40;82.30;;;;;;4974657;28;20401;-66
2022/06/21 17:02:57;;;;;;;4.57;4.27;;;27.40;83.20;;;;;;4975804;28;20411;-66
2022/06/21 17:05:34;;;;;;;7.20;6.20;;;27.40;82.60;;;;;;4976092;28;20430;-64
2022/06/21 17:08:00;;;;;;;9.40;6.20;;;27.40;82.90;;;;;;4975972;28;20390;-65
2022/06/21 17:13:25;;;;;;;4.30;3.90;;;27.30;82.50;;;;;;4975156;28;20438;-64
2022/06/21 17:15:55;;;;;;;4.83;4.20;;;27.30;82.80;;;;;;4976196;28;20802;-66
2022/06/21 17:18:35;;;;;;;5.70;4.73;;;27.30;82.90;;;;;;4991148;28;20551;-67
2022/06/21 17:21:04;;;;;;;5.93;5.30;;;27.20;82.90;;;;;;4975598;28;20431;-67
2022/06/21 17:24:00;;;;;;;4.73;4.37;;;27.20;82.80;;;;;;4975381;28;20410;-66
2022/06/21 17:26:43;;;;;;;5.30;4.80;;;27.10;83.50;;;;;;4976115;28;20423;-67
2022/06/21 17:29:19;;;;;;;4.80;4.40;;;27.10;83.60;;;;;;4968945;28;20425;-65
2022/06/21 17:31:50;;;;;;;14.73;12.80;;;27.10;83.60;;;;;;4970710;28;20398;-65
2022/06/21 17:34:29;;;;;;;6.93;5.00;;;27.10;83.70;;;;;;4973635;28;20413;-66
2022/06/21 17:37:10;;;;;;;8.60;5.77;;;27.10;83.90;;;;;;4975245;28;20466;-66
2022/06/21 17:40:07;;;;;;;5.10;4.53;;;27.20;83.70;;;;;;4975243;28;20888;-67
2022/06/21 17:42:55;;;;;;;5.20;4.80;;;27.20;83.40;;;;;;4974993;28;20907;-66
2022/06/21 17:45:30;;;;;;;5.60;4.40;;;27.20;83.60;;;;;;4975648;28;20439;-66
2022/06/21 17:48:11;;;;;;;4.73;4.23;;;27.20;83.80;;;;;;4975112;28;22423;-66
2022/06/21 17:50:42;;;;;;;5.00;4.60;;;27.20;83.70;;;;;;4975155;28;20434;-65
2022/06/21 17:53:24;;;;;;;4.57;4.17;;;27.20;84.00;;;;;;4975314;28;20404;-66
2022/06/21 17:56:00;;;;;;;4.50;4.20;;;27.20;83.90;;;;;;4975364;28;20493;-67
2022/06/21 17:58:32;;;;;;;4.30;3.83;;;27.20;83.50;;;;;;4973894;28;20514;-66
2022/06/21 18:01:11;;;;;;;4.27;3.93;;;27.20;83.20;;;;;;4975302;28;20396;-66
2022/06/21 18:04:01;;;;;;;4.33;3.93;;;27.20;82.50;;;;;;4975162;28;20510;-66
2022/06/21 18:07:04;;;;;;;4.07;3.77;;;27.20;82.30;;;;;;4974386;28;20436;-67
2022/06/21 18:10:03;;;;;;;4.73;4.27;;;27.20;82.80;;;;;;4967859;28;20419;-69
2022/06/21 18:13:07;;;;;;;3.93;3.50;;;27.10;83.10;;;;;;4971302;28;20383;-68
2022/06/21 18:15:55;;;;;;;5.20;4.80;;;27.10;83.80;;;;;;4965914;28;20554;-67
2022/06/21 18:18:54;;;;;;;3.60;3.33;;;27.10;84.50;;;;;;4978200;28;20915;-68
2022/06/21 18:21:34;;;;;;;4.33;3.80;;;27.00;84.40;;;;;;4980739;28;20787;-69
2022/06/21 18:24:15;;;;;;;4.20;3.50;;;27.00;83.80;;;;;;4973274;28;20439;-72
2022/06/21 18:26:52;;;;;;;4.40;4.10;;;26.90;84.40;;;;;;4970742;28;20402;-70